Main page
METAR-TAF:

METAR-TAF

Airports :

Orlando Executive Airport

Orlando, Florida, United States

latitude: 28-32-47N, longitude: 081-20-09W, elevation: 112 ft

Current weather observation

The report was made 19 minutes ago, at 03:53 UTC
Wind 6 mph from the East
Temperature 75°F
Humidity 78%
Pressure 30.01 in. Hg
Visibility: 10 miles
Clear sky

METAR: KORL 240353Z AUTO 10005KT 10SM CLR 24/20 A3001 RMK AO2 SLP164 T02390200

Time: 00:12 (04:12 UTC)


TAF: missing

Weather observations and forecasts of more than 4000 airports (METAR and TAF reports).

The available stations are represented by yellow and red dots on the map.

Hover mouse over dot to see the name of the station.

Then click to see weather observations and forecasts.

To change the map : click on the green buttons with a black cross to zoom in, on the green button with a dash to zoom out, or on the green arrows for adjacent maps.


METAR-TAF: